sensor_id;sensor_type;location;lat;lon;timestamp;P1;durP1;ratioP1;P2;durP2;ratioP2
17965;SDS011;9108;53.204;10.424;2023-11-19T00:01:00;19.90;;;9.35;;
17965;SDS011;9108;53.204;10.424;2023-11-19T00:03:30;20.67;;;8.80;;
17965;SDS011;9108;53.204;10.424;2023-11-19T00:05:58;23.83;;;8.95;;
17965;SDS011;9108;53.204;10.424;2023-11-19T00:08:25;17.80;;;8.70;;
17965;SDS011;9108;53.204;10.424;2023-11-19T00:10:54;19.90;;;8.40;;
17965;SDS011;9108;53.204;10.424;2023-11-19T00:13:21;18.67;;;8.05;;
17965;SDS011;9108;53.204;10.424;2023-11-19T00:15:48;15.40;;;7.50;;
17965;SDS011;9108;53.204;10.424;2023-11-19T00:18:15;18.00;;;7.32;;
17965;SDS011;9108;53.204;10.424;2023-11-19T00:20:43;15.75;;;7.38;;
17965;SDS011;9108;53.204;10.424;2023-11-19T00:23:10;16.42;;;7.18;;
17965;SDS011;9108;53.204;10.424;2023-11-19T00:25:37;14.47;;;6.83;;
17965;SDS011;9108;53.204;10.424;2023-11-19T00:28:06;17.38;;;7.32;;
17965;SDS011;9108;53.204;10.424;2023-11-19T00:30:33;14.55;;;6.70;;
17965;SDS011;9108;53.204;10.424;2023-11-19T00:33:00;13.07;;;6.35;;
17965;SDS011;9108;53.204;10.424;2023-11-19T00:35:27;14.73;;;6.70;;
17965;SDS011;9108;53.204;10.424;2023-11-19T00:37:56;14.13;;;6.40;;
17965;SDS011;9108;53.204;10.424;2023-11-19T00:40:23;14.77;;;6.50;;
17965;SDS011;9108;53.204;10.424;2023-11-19T00:42:51;14.43;;;6.73;;
17965;SDS011;9108;53.204;10.424;2023-11-19T00:45:19;16.20;;;6.57;;
17965;SDS011;9108;53.204;10.424;2023-11-19T00:47:46;13.95;;;6.53;;
17965;SDS011;9108;53.204;10.424;2023-11-19T00:50:14;14.95;;;6.57;;
17965;SDS011;9108;53.204;10.424;2023-11-19T00:52:41;14.82;;;6.43;;
17965;SDS011;9108;53.204;10.424;2023-11-19T00:55:09;15.52;;;6.30;;
17965;SDS011;9108;53.204;10.424;2023-11-19T00:57:36;13.80;;;6.30;;
17965;SDS011;9108;53.204;10.424;2023-11-19T01:00:04;14.07;;;6.47;;
17965;SDS011;9108;53.204;10.424;2023-11-19T01:02:35;14.32;;;6.45;;
17965;SDS011;9108;53.204;10.424;2023-11-19T01:05:03;14.80;;;6.37;;
17965;SDS011;9108;53.204;10.424;2023-11-19T01:07:30;14.73;;;6.38;;
17965;SDS011;9108;53.204;10.424;2023-11-19T01:09:57;14.25;;;6.53;;
17965;SDS011;9108;53.204;10.424;2023-11-19T01:12:24;15.85;;;6.85;;
17965;SDS011;9108;53.204;10.424;2023-11-19T01:14:51;15.10;;;6.72;;
17965;SDS011;9108;53.204;10.424;2023-11-19T01:17:18;15.82;;;6.65;;
17965;SDS011;9108;53.204;10.424;2023-11-19T01:19:47;13.65;;;6.18;;
17965;SDS011;9108;53.204;10.424;2023-11-19T01:22:15;14.50;;;6.20;;
17965;SDS011;9108;53.204;10.424;2023-11-19T01:24:42;14.48;;;6.30;;
17965;SDS011;9108;53.204;10.424;2023-11-19T01:27:09;12.63;;;6.03;;
17965;SDS011;9108;53.204;10.424;2023-11-19T01:29:36;12.18;;;5.50;;
17965;SDS011;9108;53.204;10.424;2023-11-19T01:32:04;14.18;;;6.32;;
17965;SDS011;9108;53.204;10.424;2023-11-19T01:34:32;12.85;;;5.70;;
17965;SDS011;9108;53.204;10.424;2023-11-19T01:37:00;14.02;;;6.40;;
17965;SDS011;9108;53.204;10.424;2023-11-19T01:39:27;16.05;;;6.60;;
17965;SDS011;9108;53.204;10.424;2023-11-19T01:41:54;16.60;;;6.93;;
17965;SDS011;9108;53.204;10.424;2023-11-19T01:44:21;12.85;;;6.20;;
17965;SDS011;9108;53.204;10.424;2023-11-19T01:46:48;16.42;;;7.43;;
17965;SDS011;9108;53.204;10.424;2023-11-19T01:49:16;17.13;;;7.60;;
17965;SDS011;9108;53.204;10.424;2023-11-19T01:51:44;17.85;;;7.90;;
17965;SDS011;9108;53.204;10.424;2023-11-19T01:54:13;17.63;;;7.95;;
17965;SDS011;9108;53.204;10.424;2023-11-19T01:56:40;21.20;;;8.40;;
17965;SDS011;9108;53.204;10.424;2023-11-19T01:59:08;19.05;;;8.48;;
17965;SDS011;9108;53.204;10.424;2023-11-19T02:01:36;18.67;;;8.15;;
17965;SDS011;9108;53.204;10.424;2023-11-19T02:04:05;21.58;;;9.13;;
17965;SDS011;9108;53.204;10.424;2023-11-19T02:06:32;19.55;;;8.48;;
17965;SDS011;9108;53.204;10.424;2023-11-19T02:09:00;21.55;;;8.70;;
17965;SDS011;9108;53.204;10.424;2023-11-19T02:11:34;19.97;;;8.57;;
17965;SDS011;9108;53.204;10.424;2023-11-19T02:14:01;20.15;;;8.70;;
17965;SDS011;9108;53.204;10.424;2023-11-19T02:16:29;18.45;;;8.38;;
17965;SDS011;9108;53.204;10.424;2023-11-19T02:18:56;19.63;;;8.77;;
17965;SDS011;9108;53.204;10.424;2023-11-19T02:21:23;18.95;;;8.20;;
17965;SDS011;9108;53.204;10.424;2023-11-19T02:23:51;15.50;;;7.53;;
17965;SDS011;9108;53.204;10.424;2023-11-19T02:26:20;16.02;;;7.75;;
17965;SDS011;9108;53.204;10.424;2023-11-19T02:28:51;15.68;;;7.22;;
17965;SDS011;9108;53.204;10.424;2023-11-19T02:31:18;15.85;;;7.32;;
17965;SDS011;9108;53.204;10.424;2023-11-19T02:33:46;15.15;;;6.78;;
17965;SDS011;9108;53.204;10.424;2023-11-19T02:36:15;14.05;;;6.68;;
17965;SDS011;9108;53.204;10.424;2023-11-19T02:38:42;16.77;;;7.00;;
17965;SDS011;9108;53.204;10.424;2023-11-19T02:41:10;15.45;;;7.20;;
17965;SDS011;9108;53.204;10.424;2023-11-19T02:43:37;16.43;;;8.00;;
17965;SDS011;9108;53.204;10.424;2023-11-19T02:46:05;15.93;;;7.43;;
17965;SDS011;9108;53.204;10.424;2023-11-19T02:48:33;13.87;;;6.63;;
17965;SDS011;9108;53.204;10.424;2023-11-19T02:51:01;11.35;;;5.63;;
17965;SDS011;9108;53.204;10.424;2023-11-19T02:53:29;10.60;;;5.20;;
17965;SDS011;9108;53.204;10.424;2023-11-19T02:55:56;14.45;;;6.15;;
17965;SDS011;9108;53.204;10.424;2023-11-19T02:58:31;11.95;;;5.53;;
17965;SDS011;9108;53.204;10.424;2023-11-19T03:00:59;9.55;;;4.85;;
17965;SDS011;9108;53.204;10.424;2023-11-19T03:03:37;9.18;;;4.10;;
17965;SDS011;9108;53.204;10.424;2023-11-19T03:06:05;8.10;;;4.00;;
17965;SDS011;9108;53.204;10.424;2023-11-19T03:08:34;7.07;;;3.53;;
17965;SDS011;9108;53.204;10.424;2023-11-19T03:11:02;6.22;;;3.25;;
17965;SDS011;9108;53.204;10.424;2023-11-19T03:13:29;5.78;;;3.22;;
17965;SDS011;9108;53.204;10.424;2023-11-19T03:15:57;5.72;;;2.88;;
17965;SDS011;9108;53.204;10.424;2023-11-19T03:18:24;4.85;;;2.92;;
17965;SDS011;9108;53.204;10.424;2023-11-19T03:20:53;4.68;;;2.55;;
17965;SDS011;9108;53.204;10.424;2023-11-19T03:23:20;5.97;;;2.88;;
17965;SDS011;9108;53.204;10.424;2023-11-19T03:25:48;3.97;;;2.30;;
17965;SDS011;9108;53.204;10.424;2023-11-19T03:28:15;4.32;;;2.33;;
17965;SDS011;9108;53.204;10.424;2023-11-19T03:30:42;4.20;;;2.38;;
17965;SDS011;9108;53.204;10.424;2023-11-19T03:33:09;3.53;;;2.20;;
17965;SDS011;9108;53.204;10.424;2023-11-19T03:35:36;3.90;;;2.17;;
17965;SDS011;9108;53.204;10.424;2023-11-19T03:38:05;3.30;;;2.22;;
17965;SDS011;9108;53.204;10.424;2023-11-19T03:40:32;3.80;;;2.40;;
17965;SDS011;9108;53.204;10.424;2023-11-19T03:42:59;3.72;;;2.25;;
17965;SDS011;9108;53.204;10.424;2023-11-19T03:45:26;3.90;;;2.35;;
17965;SDS011;9108;53.204;10.424;2023-11-19T03:47:53;3.78;;;2.13;;
17965;SDS011;9108;53.204;10.424;2023-11-19T03:50:20;3.50;;;2.03;;
17965;SDS011;9108;53.204;10.424;2023-11-19T03:52:48;4.45;;;2.17;;
17965;SDS011;9108;53.204;10.424;2023-11-19T03:55:16;4.57;;;2.40;;
17965;SDS011;9108;53.204;10.424;2023-11-19T03:57:43;3.47;;;2.22;;
17965;SDS011;9108;53.204;10.424;2023-11-19T04:00:12;4.88;;;2.50;;
17965;SDS011;9108;53.204;10.424;2023-11-19T04:02:40;3.78;;;2.15;;
17965;SDS011;9108;53.204;10.424;2023-11-19T04:05:07;3.92;;;2.40;;
17965;SDS011;9108;53.204;10.424;2023-11-19T04:07:35;4.57;;;2.47;;
17965;SDS011;9108;53.204;10.424;2023-11-19T04:10:03;4.68;;;2.30;;
17965;SDS011;9108;53.204;10.424;2023-11-19T04:12:32;6.55;;;2.53;;
17965;SDS011;9108;53.204;10.424;2023-11-19T04:14:59;4.70;;;2.70;;
17965;SDS011;9108;53.204;10.424;2023-11-19T04:17:26;5.03;;;2.90;;
17965;SDS011;9108;53.204;10.424;2023-11-19T04:19:53;6.07;;;3.10;;
17965;SDS011;9108;53.204;10.424;2023-11-19T04:22:20;8.13;;;3.20;;
17965;SDS011;9108;53.204;10.424;2023-11-19T04:24:47;7.37;;;3.57;;
17965;SDS011;9108;53.204;10.424;2023-11-19T04:27:14;6.32;;;3.72;;
17965;SDS011;9108;53.204;10.424;2023-11-19T04:29:43;9.25;;;4.40;;
17965;SDS011;9108;53.204;10.424;2023-11-19T04:32:12;9.60;;;5.00;;
17965;SDS011;9108;53.204;10.424;2023-11-19T04:34:39;11.38;;;5.13;;
17965;SDS011;9108;53.204;10.424;2023-11-19T04:37:06;11.70;;;6.10;;
17965;SDS011;9108;53.204;10.424;2023-11-19T04:39:34;12.52;;;5.88;;
17965;SDS011;9108;53.204;10.424;2023-11-19T04:42:02;10.07;;;5.80;;
17965;SDS011;9108;53.204;10.424;2023-11-19T04:44:31;12.05;;;5.95;;
17965;SDS011;9108;53.204;10.424;2023-11-19T04:47:00;12.52;;;6.18;;
17965;SDS011;9108;53.204;10.424;2023-11-19T04:49:27;16.33;;;6.75;;
17965;SDS011;9108;53.204;10.424;2023-11-19T04:51:55;14.98;;;6.80;;
17965;SDS011;9108;53.204;10.424;2023-11-19T04:54:22;15.98;;;7.40;;
17965;SDS011;9108;53.204;10.424;2023-11-19T04:56:50;14.93;;;7.30;;
17965;SDS011;9108;53.204;10.424;2023-11-19T04:59:17;15.43;;;7.60;;
17965;SDS011;9108;53.204;10.424;2023-11-19T05:01:46;17.60;;;8.30;;
17965;SDS011;9108;53.204;10.424;2023-11-19T05:04:14;16.42;;;8.15;;
17965;SDS011;9108;53.204;10.424;2023-11-19T05:06:42;18.90;;;8.48;;
17965;SDS011;9108;53.204;10.424;2023-11-19T05:09:09;19.88;;;8.77;;
17965;SDS011;9108;53.204;10.424;2023-11-19T05:11:38;20.15;;;8.95;;
17965;SDS011;9108;53.204;10.424;2023-11-19T05:14:05;20.30;;;9.30;;
17965;SDS011;9108;53.204;10.424;2023-11-19T05:16:34;22.38;;;9.82;;
17965;SDS011;9108;53.204;10.424;2023-11-19T05:19:01;26.10;;;10.60;;
17965;SDS011;9108;53.204;10.424;2023-11-19T05:21:30;24.70;;;10.95;;
17965;SDS011;9108;53.204;10.424;2023-11-19T05:23:57;26.63;;;10.75;;
17965;SDS011;9108;53.204;10.424;2023-11-19T05:28:55;34.83;;;12.90;;
17965;SDS011;9108;53.204;10.424;2023-11-19T05:31:22;38.50;;;13.57;;
17965;SDS011;9108;53.204;10.424;2023-11-19T05:33:49;35.75;;;14.15;;
17965;SDS011;9108;53.204;10.424;2023-11-19T05:36:16;40.37;;;14.37;;
17965;SDS011;9108;53.204;10.424;2023-11-19T05:38:45;38.42;;;14.57;;
17965;SDS011;9108;53.204;10.424;2023-11-19T05:41:12;41.83;;;15.25;;
17965;SDS011;9108;53.204;10.424;2023-11-19T05:43:39;45.25;;;15.27;;
17965;SDS011;9108;53.204;10.424;2023-11-19T05:46:07;48.30;;;16.23;;
17965;SDS011;9108;53.204;10.424;2023-11-19T05:48:34;47.25;;;15.40;;
17965;SDS011;9108;53.204;10.424;2023-11-19T05:51:01;40.30;;;15.35;;
17965;SDS011;9108;53.204;10.424;2023-11-19T05:53:28;46.25;;;15.95;;
17965;SDS011;9108;53.204;10.424;2023-11-19T05:55:57;46.47;;;16.03;;
17965;SDS011;9108;53.204;10.424;2023-11-19T05:58:28;46.97;;;16.07;;
17965;SDS011;9108;53.204;10.424;2023-11-19T06:00:57;43.42;;;15.85;;
17965;SDS011;9108;53.204;10.424;2023-11-19T06:03:26;46.92;;;15.45;;
17965;SDS011;9108;53.204;10.424;2023-11-19T06:05:53;48.65;;;16.08;;
17965;SDS011;9108;53.204;10.424;2023-11-19T06:08:20;48.97;;;16.60;;
17965;SDS011;9108;53.204;10.424;2023-11-19T06:10:47;46.20;;;16.33;;
17965;SDS011;9108;53.204;10.424;2023-11-19T06:13:17;47.35;;;16.38;;
17965;SDS011;9108;53.204;10.424;2023-11-19T06:15:44;48.30;;;16.55;;
17965;SDS011;9108;53.204;10.424;2023-11-19T06:18:11;49.22;;;16.77;;
17965;SDS011;9108;53.204;10.424;2023-11-19T06:20:40;45.67;;;16.50;;
17965;SDS011;9108;53.204;10.424;2023-11-19T06:23:07;50.73;;;16.83;;
17965;SDS011;9108;53.204;10.424;2023-11-19T06:25:34;49.83;;;16.75;;
17965;SDS011;9108;53.204;10.424;2023-11-19T06:28:01;50.22;;;16.10;;
17965;SDS011;9108;53.204;10.424;2023-11-19T06:30:30;47.88;;;16.20;;
17965;SDS011;9108;53.204;10.424;2023-11-19T06:32:57;44.60;;;15.90;;
17965;SDS011;9108;53.204;10.424;2023-11-19T06:35:24;49.55;;;17.15;;
17965;SDS011;9108;53.204;10.424;2023-11-19T06:37:52;54.05;;;16.58;;
17965;SDS011;9108;53.204;10.424;2023-11-19T06:40:20;45.30;;;15.80;;
17965;SDS011;9108;53.204;10.424;2023-11-19T06:42:47;44.72;;;15.45;;
17965;SDS011;9108;53.204;10.424;2023-11-19T06:45:14;48.17;;;15.48;;
17965;SDS011;9108;53.204;10.424;2023-11-19T06:47:42;51.53;;;15.80;;
17965;SDS011;9108;53.204;10.424;2023-11-19T06:50:10;52.78;;;16.02;;
17965;SDS011;9108;53.204;10.424;2023-11-19T06:52:37;53.33;;;17.10;;
17965;SDS011;9108;53.204;10.424;2023-11-19T06:55:05;54.97;;;16.13;;
17965;SDS011;9108;53.204;10.424;2023-11-19T06:57:32;57.37;;;15.23;;
17965;SDS011;9108;53.204;10.424;2023-11-19T06:59:59;60.38;;;15.82;;
17965;SDS011;9108;53.204;10.424;2023-11-19T07:02:27;56.63;;;15.55;;
17965;SDS011;9108;53.204;10.424;2023-11-19T07:04:56;51.83;;;14.85;;
17965;SDS011;9108;53.204;10.424;2023-11-19T07:07:24;59.83;;;15.95;;
17965;SDS011;9108;53.204;10.424;2023-11-19T07:09:52;60.72;;;15.88;;
17965;SDS011;9108;53.204;10.424;2023-11-19T07:12:19;60.03;;;16.15;;
17965;SDS011;9108;53.204;10.424;2023-11-19T07:14:46;64.55;;;15.65;;
17965;SDS011;9108;53.204;10.424;2023-11-19T07:17:14;59.15;;;14.93;;
17965;SDS011;9108;53.204;10.424;2023-11-19T07:19:42;54.60;;;15.20;;
17965;SDS011;9108;53.204;10.424;2023-11-19T07:22:11;46.15;;;13.48;;
17965;SDS011;9108;53.204;10.424;2023-11-19T07:24:38;56.35;;;13.50;;
17965;SDS011;9108;53.204;10.424;2023-11-19T07:27:06;49.65;;;13.05;;
17965;SDS011;9108;53.204;10.424;2023-11-19T07:29:33;51.70;;;13.18;;
17965;SDS011;9108;53.204;10.424;2023-11-19T07:32:01;47.33;;;11.75;;
17965;SDS011;9108;53.204;10.424;2023-11-19T07:34:28;48.53;;;12.25;;
17965;SDS011;9108;53.204;10.424;2023-11-19T07:36:56;49.33;;;12.43;;
17965;SDS011;9108;53.204;10.424;2023-11-19T07:39:28;43.58;;;11.60;;
17965;SDS011;9108;53.204;10.424;2023-11-19T07:41:56;43.57;;;10.23;;
17965;SDS011;9108;53.204;10.424;2023-11-19T07:44:23;42.65;;;10.00;;
17965;SDS011;9108;53.204;10.424;2023-11-19T07:46:51;48.55;;;9.60;;
17965;SDS011;9108;53.204;10.424;2023-11-19T07:49:18;37.90;;;8.48;;
17965;SDS011;9108;53.204;10.424;2023-11-19T07:51:45;34.83;;;8.65;;
17965;SDS011;9108;53.204;10.424;2023-11-19T07:54:12;40.65;;;8.15;;
17965;SDS011;9108;53.204;10.424;2023-11-19T07:56:41;43.92;;;7.50;;
17965;SDS011;9108;53.204;10.424;2023-11-19T07:59:08;42.30;;;6.93;;
17965;SDS011;9108;53.204;10.424;2023-11-19T08:01:38;37.30;;;6.13;;
17965;SDS011;9108;53.204;10.424;2023-11-19T08:04:05;28.45;;;5.78;;
17965;SDS011;9108;53.204;10.424;2023-11-19T08:06:32;33.30;;;5.80;;
17965;SDS011;9108;53.204;10.424;2023-11-19T08:09:00;33.50;;;5.90;;
17965;SDS011;9108;53.204;10.424;2023-11-19T08:11:27;28.35;;;5.20;;
17965;SDS011;9108;53.204;10.424;2023-11-19T08:13:56;34.40;;;5.13;;
17965;SDS011;9108;53.204;10.424;2023-11-19T08:16:23;30.57;;;4.47;;
17965;SDS011;9108;53.204;10.424;2023-11-19T08:18:50;30.17;;;4.55;;
17965;SDS011;9108;53.204;10.424;2023-11-19T08:21:17;32.25;;;5.18;;
17965;SDS011;9108;53.204;10.424;2023-11-19T08:23:48;36.05;;;5.53;;
17965;SDS011;9108;53.204;10.424;2023-11-19T08:26:15;31.40;;;5.07;;
17965;SDS011;9108;53.204;10.424;2023-11-19T08:28:44;37.25;;;5.30;;
17965;SDS011;9108;53.204;10.424;2023-11-19T08:31:17;33.88;;;5.47;;
17965;SDS011;9108;53.204;10.424;2023-11-19T08:33:45;33.58;;;5.05;;
17965;SDS011;9108;53.204;10.424;2023-11-19T08:36:15;29.45;;;4.68;;
17965;SDS011;9108;53.204;10.424;2023-11-19T08:38:42;32.72;;;5.07;;
17965;SDS011;9108;53.204;10.424;2023-11-19T08:41:09;36.05;;;5.80;;
17965;SDS011;9108;53.204;10.424;2023-11-19T08:43:36;36.65;;;6.78;;
17965;SDS011;9108;53.204;10.424;2023-11-19T08:46:04;32.20;;;5.15;;
17965;SDS011;9108;53.204;10.424;2023-11-19T08:48:37;35.58;;;5.07;;
17965;SDS011;9108;53.204;10.424;2023-11-19T08:51:04;40.88;;;5.50;;
17965;SDS011;9108;53.204;10.424;2023-11-19T08:53:32;32.10;;;5.03;;
17965;SDS011;9108;53.204;10.424;2023-11-19T08:55:59;38.20;;;5.10;;
17965;SDS011;9108;53.204;10.424;2023-11-19T08:58:27;38.87;;;5.27;;
17965;SDS011;9108;53.204;10.424;2023-11-19T09:00:55;34.70;;;5.13;;
17965;SDS011;9108;53.204;10.424;2023-11-19T09:03:22;36.08;;;4.88;;
17965;SDS011;9108;53.204;10.424;2023-11-19T09:05:52;32.60;;;5.10;;
17965;SDS011;9108;53.204;10.424;2023-11-19T09:08:19;30.73;;;4.53;;
17965;SDS011;9108;53.204;10.424;2023-11-19T09:10:47;33.72;;;4.82;;
17965;SDS011;9108;53.204;10.424;2023-11-19T09:13:14;30.42;;;4.75;;
17965;SDS011;9108;53.204;10.424;2023-11-19T09:15:41;35.75;;;4.90;;
17965;SDS011;9108;53.204;10.424;2023-11-19T09:18:08;34.95;;;4.80;;
17965;SDS011;9108;53.204;10.424;2023-11-19T09:20:35;36.05;;;5.20;;
17965;SDS011;9108;53.204;10.424;2023-11-19T09:23:05;35.42;;;4.72;;
17965;SDS011;9108;53.204;10.424;2023-11-19T09:25:34;35.30;;;4.45;;
17965;SDS011;9108;53.204;10.424;2023-11-19T09:28:01;39.00;;;5.43;;
17965;SDS011;9108;53.204;10.424;2023-11-19T09:30:29;36.00;;;4.95;;
17965;SDS011;9108;53.204;10.424;2023-11-19T09:32:58;42.40;;;5.15;;
17965;SDS011;9108;53.204;10.424;2023-11-19T09:35:25;40.90;;;5.43;;
17965;SDS011;9108;53.204;10.424;2023-11-19T09:37:53;35.97;;;5.30;;
17965;SDS011;9108;53.204;10.424;2023-11-19T09:40:21;31.58;;;5.13;;
17965;SDS011;9108;53.204;10.424;2023-11-19T09:42:54;32.22;;;4.50;;
17965;SDS011;9108;53.204;10.424;2023-11-19T09:45:21;34.57;;;4.57;;
17965;SDS011;9108;53.204;10.424;2023-11-19T09:47:48;41.53;;;5.10;;
17965;SDS011;9108;53.204;10.424;2023-11-19T09:50:19;40.73;;;4.83;;
17965;SDS011;9108;53.204;10.424;2023-11-19T09:52:47;42.33;;;5.28;;
17965;SDS011;9108;53.204;10.424;2023-11-19T09:55:14;40.35;;;5.80;;
17965;SDS011;9108;53.204;10.424;2023-11-19T09:57:42;41.03;;;6.13;;
17965;SDS011;9108;53.204;10.424;2023-11-19T10:00:10;40.33;;;5.53;;
17965;SDS011;9108;53.204;10.424;2023-11-19T10:02:38;40.45;;;5.68;;
17965;SDS011;9108;53.204;10.424;2023-11-19T10:05:06;39.05;;;5.57;;
17965;SDS011;9108;53.204;10.424;2023-11-19T10:07:33;36.55;;;5.22;;
17965;SDS011;9108;53.204;10.424;2023-11-19T10:10:01;36.53;;;5.07;;
17965;SDS011;9108;53.204;10.424;2023-11-19T10:12:29;32.00;;;4.80;;
17965;SDS011;9108;53.204;10.424;2023-11-19T10:14:57;36.45;;;4.70;;
17965;SDS011;9108;53.204;10.424;2023-11-19T10:17:27;37.70;;;4.50;;
17965;SDS011;9108;53.204;10.424;2023-11-19T10:19:55;36.70;;;5.07;;
17965;SDS011;9108;53.204;10.424;2023-11-19T10:22:22;38.65;;;5.22;;
17965;SDS011;9108;53.204;10.424;2023-11-19T10:24:51;35.33;;;4.75;;
17965;SDS011;9108;53.204;10.424;2023-11-19T10:27:18;37.22;;;4.88;;
17965;SDS011;9108;53.204;10.424;2023-11-19T10:29:49;34.57;;;5.03;;
17965;SDS011;9108;53.204;10.424;2023-11-19T10:47:53;40.63;;;5.25;;
17965;SDS011;9108;53.204;10.424;2023-11-19T10:50:21;38.30;;;5.10;;
17965;SDS011;9108;53.204;10.424;2023-11-19T10:53:04;27.35;;;4.30;;
17965;SDS011;9108;53.204;10.424;2023-11-19T10:58:45;36.78;;;4.75;;
17965;SDS011;9108;53.204;10.424;2023-11-19T11:32:32;31.13;;;4.47;;
17965;SDS011;9108;53.204;10.424;2023-11-19T11:38:13;35.33;;;5.40;;
17965;SDS011;9108;53.204;10.424;2023-11-19T12:29:49;27.77;;;4.32;;
17965;SDS011;9108;53.204;10.424;2023-11-19T12:32:17;26.08;;;4.40;;
17965;SDS011;9108;53.204;10.424;2023-11-19T12:34:59;20.70;;;3.42;;
17965;SDS011;9108;53.204;10.424;2023-11-19T12:40:42;25.58;;;3.50;;
17965;SDS011;9108;53.204;10.424;2023-11-19T14:24:37;40.67;;;5.45;;
17965;SDS011;9108;53.204;10.424;2023-11-19T14:27:07;39.10;;;5.07;;
17965;SDS011;9108;53.204;10.424;2023-11-19T14:29:34;34.83;;;4.95;;
17965;SDS011;9108;53.204;10.424;2023-11-19T14:32:01;40.13;;;5.10;;
17965;SDS011;9108;53.204;10.424;2023-11-19T14:34:29;36.72;;;4.95;;
17965;SDS011;9108;53.204;10.424;2023-11-19T14:36:57;27.83;;;4.10;;
17965;SDS011;9108;53.204;10.424;2023-11-19T14:39:25;30.97;;;3.67;;
17965;SDS011;9108;53.204;10.424;2023-11-19T14:42:06;35.33;;;4.15;;
17965;SDS011;9108;53.204;10.424;2023-11-19T14:44:34;25.33;;;3.70;;
17965;SDS011;9108;53.204;10.424;2023-11-19T14:47:01;29.97;;;4.50;;
17965;SDS011;9108;53.204;10.424;2023-11-19T14:49:29;26.48;;;4.38;;
17965;SDS011;9108;53.204;10.424;2023-11-19T14:51:56;21.80;;;4.25;;
17965;SDS011;9108;53.204;10.424;2023-11-19T14:54:23;23.92;;;4.00;;
17965;SDS011;9108;53.204;10.424;2023-11-19T14:56:51;19.42;;;2.78;;
17965;SDS011;9108;53.204;10.424;2023-11-19T14:59:19;23.17;;;4.03;;
17965;SDS011;9108;53.204;10.424;2023-11-19T15:01:47;23.55;;;3.85;;
17965;SDS011;9108;53.204;10.424;2023-11-19T15:04:14;17.67;;;2.78;;
17965;SDS011;9108;53.204;10.424;2023-11-19T15:06:42;17.40;;;2.38;;
17965;SDS011;9108;53.204;10.424;2023-11-19T15:09:10;17.27;;;3.23;;
17965;SDS011;9108;53.204;10.424;2023-11-19T15:11:41;18.40;;;3.43;;
17965;SDS011;9108;53.204;10.424;2023-11-19T15:14:08;18.27;;;2.67;;
17965;SDS011;9108;53.204;10.424;2023-11-19T15:16:37;15.83;;;2.17;;
17965;SDS011;9108;53.204;10.424;2023-11-19T15:19:04;12.00;;;2.38;;
17965;SDS011;9108;53.204;10.424;2023-11-19T15:21:33;15.75;;;2.22;;
17965;SDS011;9108;53.204;10.424;2023-11-19T15:24:00;12.15;;;1.92;;
17965;SDS011;9108;53.204;10.424;2023-11-19T15:26:29;12.95;;;2.30;;
17965;SDS011;9108;53.204;10.424;2023-11-19T15:28:58;13.57;;;1.92;;
17965;SDS011;9108;53.204;10.424;2023-11-19T15:31:25;15.90;;;2.50;;
17965;SDS011;9108;53.204;10.424;2023-11-19T15:33:55;11.15;;;1.70;;
17965;SDS011;9108;53.204;10.424;2023-11-19T15:36:23;14.48;;;2.40;;
17965;SDS011;9108;53.204;10.424;2023-11-19T15:38:50;15.52;;;2.60;;
17965;SDS011;9108;53.204;10.424;2023-11-19T15:41:20;13.23;;;1.90;;
17965;SDS011;9108;53.204;10.424;2023-11-19T15:43:47;15.45;;;3.58;;
17965;SDS011;9108;53.204;10.424;2023-11-19T15:46:15;10.63;;;2.50;;
17965;SDS011;9108;53.204;10.424;2023-11-19T15:48:42;12.93;;;2.28;;
17965;SDS011;9108;53.204;10.424;2023-11-19T15:51:11;12.98;;;2.17;;
17965;SDS011;9108;53.204;10.424;2023-11-19T15:53:40;15.68;;;2.78;;
17965;SDS011;9108;53.204;10.424;2023-11-19T15:56:44;12.82;;;2.30;;
17965;SDS011;9108;53.204;10.424;2023-11-19T15:59:26;12.65;;;2.35;;
17965;SDS011;9108;53.204;10.424;2023-11-19T16:01:53;17.20;;;3.50;;
17965;SDS011;9108;53.204;10.424;2023-11-19T16:04:21;14.45;;;2.45;;
17965;SDS011;9108;53.204;10.424;2023-11-19T16:06:50;14.20;;;2.55;;
17965;SDS011;9108;53.204;10.424;2023-11-19T16:09:17;16.38;;;2.75;;
17965;SDS011;9108;53.204;10.424;2023-11-19T16:11:47;16.17;;;2.75;;
17965;SDS011;9108;53.204;10.424;2023-11-19T16:14:14;18.92;;;2.63;;
17965;SDS011;9108;53.204;10.424;2023-11-19T16:16:42;13.00;;;2.50;;
17965;SDS011;9108;53.204;10.424;2023-11-19T16:19:09;15.52;;;2.60;;
17965;SDS011;9108;53.204;10.424;2023-11-19T16:21:36;17.98;;;2.90;;
17965;SDS011;9108;53.204;10.424;2023-11-19T16:24:05;19.50;;;2.60;;
17965;SDS011;9108;53.204;10.424;2023-11-19T16:26:33;19.08;;;3.05;;
17965;SDS011;9108;53.204;10.424;2023-11-19T16:29:01;16.70;;;2.90;;
17965;SDS011;9108;53.204;10.424;2023-11-19T16:31:29;15.55;;;2.65;;
17965;SDS011;9108;53.204;10.424;2023-11-19T16:33:56;17.30;;;2.80;;
17965;SDS011;9108;53.204;10.424;2023-11-19T16:36:25;17.67;;;2.63;;
17965;SDS011;9108;53.204;10.424;2023-11-19T16:38:54;16.05;;;2.70;;
17965;SDS011;9108;53.204;10.424;2023-11-19T16:41:25;21.90;;;3.10;;
17965;SDS011;9108;53.204;10.424;2023-11-19T16:44:00;20.70;;;3.03;;
17965;SDS011;9108;53.204;10.424;2023-11-19T16:46:29;20.85;;;3.05;;
17965;SDS011;9108;53.204;10.424;2023-11-19T16:48:57;21.58;;;3.60;;
17965;SDS011;9108;53.204;10.424;2023-11-19T16:51:29;22.92;;;3.78;;
17965;SDS011;9108;53.204;10.424;2023-11-19T16:53:57;22.95;;;3.70;;
17965;SDS011;9108;53.204;10.424;2023-11-19T16:56:27;23.63;;;3.50;;
17965;SDS011;9108;53.204;10.424;2023-11-19T16:58:59;20.45;;;3.90;;
17965;SDS011;9108;53.204;10.424;2023-11-19T17:01:37;21.48;;;3.10;;
17965;SDS011;9108;53.204;10.424;2023-11-19T17:04:13;21.70;;;3.55;;
17965;SDS011;9108;53.204;10.424;2023-11-19T17:06:42;21.67;;;3.27;;
17965;SDS011;9108;53.204;10.424;2023-11-19T17:09:09;21.98;;;3.50;;
17965;SDS011;9108;53.204;10.424;2023-11-19T17:11:40;25.30;;;3.60;;
17965;SDS011;9108;53.204;10.424;2023-11-19T17:14:08;26.42;;;3.70;;
17965;SDS011;9108;53.204;10.424;2023-11-19T17:16:36;27.23;;;4.13;;
17965;SDS011;9108;53.204;10.424;2023-11-19T17:19:05;24.00;;;3.75;;
17965;SDS011;9108;53.204;10.424;2023-11-19T17:21:37;27.23;;;3.63;;
17965;SDS011;9108;53.204;10.424;2023-11-19T17:24:04;26.83;;;3.85;;
17965;SDS011;9108;53.204;10.424;2023-11-19T17:26:32;32.00;;;4.27;;
17965;SDS011;9108;53.204;10.424;2023-11-19T17:29:01;32.97;;;4.70;;
17965;SDS011;9108;53.204;10.424;2023-11-19T17:31:35;28.52;;;5.07;;
17965;SDS011;9108;53.204;10.424;2023-11-19T17:34:04;32.17;;;4.50;;
17965;SDS011;9108;53.204;10.424;2023-11-19T17:36:32;31.85;;;4.75;;
17965;SDS011;9108;53.204;10.424;2023-11-19T17:39:01;27.70;;;4.25;;
17965;SDS011;9108;53.204;10.424;2023-11-19T17:41:29;27.33;;;3.90;;
17965;SDS011;9108;53.204;10.424;2023-11-19T17:46:42;29.08;;;4.50;;
17965;SDS011;9108;53.204;10.424;2023-11-19T17:49:09;36.00;;;5.03;;
17965;SDS011;9108;53.204;10.424;2023-11-19T17:56:44;32.42;;;5.22;;
17965;SDS011;9108;53.204;10.424;2023-11-19T17:59:11;28.45;;;4.60;;
17965;SDS011;9108;53.204;10.424;2023-11-19T18:01:39;31.58;;;4.90;;
17965;SDS011;9108;53.204;10.424;2023-11-19T18:04:08;28.58;;;4.65;;
17965;SDS011;9108;53.204;10.424;2023-11-19T18:06:38;27.10;;;4.30;;
17965;SDS011;9108;53.204;10.424;2023-11-19T18:09:05;34.72;;;5.47;;
17965;SDS011;9108;53.204;10.424;2023-11-19T18:11:35;33.30;;;4.65;;
17965;SDS011;9108;53.204;10.424;2023-11-19T18:14:05;27.55;;;4.72;;
17965;SDS011;9108;53.204;10.424;2023-11-19T18:16:34;34.30;;;5.40;;